TimeMST,TemperatureF,Dew PointF,Humidity,Sea Level PressureIn,VisibilityMPH,Wind Direction,Wind SpeedMPH,Gust SpeedMPH,PrecipitationIn,Events,Conditions,WindDirDegrees,DateUTC
12:37 AM,3.2,-0.4,85,30.19,10.0,ESE,17.3,25.3,N/A,,Mostly Cloudy,110,2013-02-19 07:37:00
12:53 AM,3.9,-0.0,84,30.35,10.0,ESE,20.7,-,N/A,,Overcast,110,2013-02-19 07:53:00
1:27 AM,3.2,-0.4,85,30.18,10.0,ESE,19.6,-,N/A,,Scattered Clouds,110,2013-02-19 08:27:00
1:53 AM,3.0,-0.9,84,30.31,10.0,ESE,18.4,-,N/A,,Scattered Clouds,110,2013-02-19 08:53:00
2:01 AM,3.2,-0.4,85,30.16,10.0,ESE,19.6,-,N/A,,Mostly Cloudy,110,2013-02-19 09:01:00
2:53 AM,1.9,-2.9,80,30.31,10.0,ESE,18.4,-,N/A,,Partly Cloudy,110,2013-02-19 09:53:00
3:53 AM,1.0,-4.0,79,30.30,10.0,ESE,19.6,26.5,N/A,,Clear,110,2013-02-19 10:53:00
4:53 AM,-0.0,-4.0,83,30.29,10.0,ESE,18.4,27.6,N/A,,Clear,110,2013-02-19 11:53:00
5:53 AM,-0.0,-5.1,79,30.29,10.0,ESE,19.6,-,N/A,,Clear,120,2013-02-19 12:53:00
6:53 AM,-0.9,-5.1,83,30.28,10.0,ESE,21.9,-,N/A,,Clear,110,2013-02-19 13:53:00
7:53 AM,-0.0,-5.1,79,30.28,10.0,East,20.7,-,N/A,,Clear,100,2013-02-19 14:53:00
8:53 AM,1.9,-2.9,80,30.27,10.0,ESE,26.5,32.2,N/A,,Clear,110,2013-02-19 15:53:00
9:53 AM,3.9,-2.9,73,30.26,10.0,ESE,26.5,-,N/A,,Clear,110,2013-02-19 16:53:00
11:53 AM,9.0,-0.0,67,30.20,10.0,ESE,24.2,33.4,N/A,,Clear,110,2013-02-19 18:53:00
12:53 PM,10.0,1.0,67,30.17,10.0,ESE,28.8,35.7,N/A,,Clear,110,2013-02-19 19:53:00
1:53 PM,10.0,1.0,67,30.14,10.0,East,24.2,35.7,N/A,,Clear,100,2013-02-19 20:53:00
2:53 PM,10.0,-0.0,64,30.14,10.0,East,27.6,38.0,N/A,,Clear,100,2013-02-19 21:53:00
3:53 PM,9.0,-0.0,67,30.14,10.0,East,27.6,34.5,N/A,,Clear,100,2013-02-19 22:53:00
5:53 PM,9.0,-0.0,67,30.12,10.0,ESE,26.5,-,N/A,,Scattered Clouds,110,2013-02-20 00:53:00
6:53 PM,8.1,-0.0,70,30.14,10.0,East,23.0,29.9,N/A,,Clear,100,2013-02-20 01:53:00
7:53 PM,8.6,-0.4,67,29.94,10.0,East,23.0,31.1,N/A,,Clear,100,2013-02-20 02:53:00
8:53 PM,8.1,-0.0,70,30.11,10.0,ESE,25.3,32.2,N/A,,Clear,110,2013-02-20 03:53:00
9:53 PM,8.1,-0.0,70,30.09,10.0,East,23.0,28.8,N/A,,Clear,100,2013-02-20 04:53:00
10:53 PM,7.0,-0.0,73,30.09,10.0,East,20.7,-,N/A,,Clear,100,2013-02-20 05:53:00
11:53 PM,6.1,-0.9,73,30.09,10.0,East,21.9,28.8,N/A,,Clear,100,2013-02-20 06:53:00